Time;durP1;ratioP1;P1;durP2;ratioP2;P2;SDS_P1;SDS_P2;PMS_P1;PMS_P2;Temp;Humidity;BMP_temperature;BMP_pressure;BME280_temperature;BME280_humidity;BME280_pressure;Samples;Min_cycle;Max_cycle;Signal;HPM_P1;HPM_P2
2023/05/25 00:00:19;;;;;;;4.67;1.57;;;11.40;99.90;;;;;;4937394;29;20208;-76
2023/05/25 00:02:46;;;;;;;4.63;1.50;;;11.50;99.90;;;;;;4937611;29;20229;-77
2023/05/25 00:05:13;;;;;;;4.93;1.53;;;11.60;99.90;;;;;;4937283;29;20268;-76
2023/05/25 00:07:40;;;;;;;3.90;1.30;;;11.50;99.90;;;;;;4937199;29;20292;-77
2023/05/25 00:10:09;;;;;;;3.37;1.53;;;11.40;99.90;;;;;;4937130;29;20208;-75
2023/05/25 00:12:36;;;;;;;7.83;1.80;;;11.20;99.90;;;;;;4937012;29;20235;-76
2023/05/25 00:15:04;;;;;;;6.27;1.90;;;11.20;99.90;;;;;;4937586;29;20213;-76
2023/05/25 00:17:30;;;;;;;5.50;1.13;;;11.30;99.90;;;;;;4937370;29;20211;-78
2023/05/25 00:20:06;;;;;;;3.07;1.60;;;11.20;99.90;;;;;;4937087;29;20665;-77
2023/05/25 00:22:33;;;;;;;5.43;1.60;;;11.20;99.90;;;;;;4936923;29;20695;-77
2023/05/25 00:25:00;;;;;;;6.93;1.60;;;11.20;99.90;;;;;;4936891;29;20278;-76
2023/05/25 00:27:28;;;;;;;4.73;1.70;;;11.20;99.90;;;;;;4936839;29;20205;-78
2023/05/25 00:29:55;;;;;;;2.67;1.40;;;11.20;99.90;;;;;;4936727;29;20215;-76
2023/05/25 00:32:22;;;;;;;3.27;1.43;;;11.20;99.90;;;;;;4936961;29;20225;-77
2023/05/25 00:34:48;;;;;;;5.73;1.63;;;11.00;99.90;;;;;;4936789;29;20209;-76
2023/05/25 00:37:16;;;;;;;3.33;1.60;;;11.00;99.90;;;;;;4937066;29;20219;-76
2023/05/25 00:39:42;;;;;;;3.60;1.57;;;10.90;99.90;;;;;;4936839;29;20208;-77
2023/05/25 00:42:09;;;;;;;7.03;1.70;;;10.90;99.90;;;;;;4936549;29;20235;-77
2023/05/25 00:44:38;;;;;;;4.30;1.60;;;11.10;99.90;;;;;;4936673;29;20233;-77
2023/05/25 00:47:05;;;;;;;5.80;1.83;;;11.00;99.90;;;;;;4936482;29;20664;-76
2023/05/25 00:49:35;;;;;;;4.20;1.87;;;11.10;99.90;;;;;;4936666;29;20291;-77
2023/05/25 00:52:02;;;;;;;4.90;1.80;;;11.00;99.90;;;;;;4936856;29;20228;-76
2023/05/25 00:54:32;;;;;;;4.20;1.60;;;11.00;99.90;;;;;;4936971;29;20213;-77
2023/05/25 00:57:02;;;;;;;7.07;2.00;;;11.00;99.90;;;;;;4936523;29;20621;-76
2023/05/25 00:59:34;;;;;;;7.50;1.70;;;11.00;99.90;;;;;;4936286;29;20205;-77
2023/05/25 01:02:07;;;;;;;5.63;1.70;;;11.00;99.90;;;;;;4936550;29;20255;-76
2023/05/25 01:04:36;;;;;;;6.10;1.87;;;11.10;99.90;;;;;;4936293;29;20232;-77
2023/05/25 01:07:06;;;;;;;4.33;1.63;;;11.20;99.90;;;;;;4936441;29;20219;-76
2023/05/25 01:09:35;;;;;;;4.77;1.70;;;11.30;99.90;;;;;;4936214;29;20304;-77
2023/05/25 01:12:02;;;;;;;6.93;1.87;;;11.30;99.90;;;;;;4936110;29;20292;-77
2023/05/25 01:14:31;;;;;;;4.60;1.70;;;11.20;99.90;;;;;;4936538;29;20300;-77
2023/05/25 01:16:58;;;;;;;4.20;1.43;;;11.20;99.90;;;;;;4936394;29;20211;-77
2023/05/25 01:19:27;;;;;;;5.30;2.10;;;11.20;99.90;;;;;;4936356;29;20215;-76
2023/05/25 01:22:02;;;;;;;2.80;1.57;;;11.20;99.90;;;;;;4936195;29;20266;-78
2023/05/25 01:24:35;;;;;;;6.10;2.00;;;11.20;99.90;;;;;;4936166;29;20560;-77
2023/05/25 01:27:11;;;;;;;3.73;1.60;;;11.20;99.90;;;;;;4936086;29;20296;-77
2023/05/25 01:29:41;;;;;;;5.10;1.93;;;11.20;99.90;;;;;;4936011;29;20212;-76
2023/05/25 01:32:09;;;;;;;3.17;1.63;;;11.10;99.90;;;;;;4936446;29;20587;-77
2023/05/25 01:34:37;;;;;;;4.33;1.83;;;11.00;99.90;;;;;;4935847;29;20224;-77
2023/05/25 01:37:06;;;;;;;6.80;1.90;;;11.00;99.90;;;;;;4935715;29;20583;-76
2023/05/25 01:39:33;;;;;;;3.27;1.77;;;10.90;99.90;;;;;;4935733;29;20731;-76
2023/05/25 01:42:00;;;;;;;8.40;1.60;;;10.90;99.90;;;;;;4936002;29;20573;-76
2023/05/25 01:44:28;;;;;;;6.53;1.80;;;10.90;99.90;;;;;;4935973;29;20209;-76
2023/05/25 01:47:12;;;;;;;5.93;1.73;;;10.70;99.90;;;;;;4935997;29;20216;-76
2023/05/25 01:49:49;;;;;;;8.73;1.80;;;10.70;99.90;;;;;;4935677;29;20205;-76
2023/05/25 01:52:22;;;;;;;4.30;1.73;;;10.80;99.90;;;;;;4935901;29;20232;-77
2023/05/25 01:54:55;;;;;;;6.70;1.90;;;10.90;99.90;;;;;;4935746;29;20683;-77
2023/05/25 01:57:24;;;;;;;5.63;1.80;;;10.90;99.90;;;;;;4935586;29;20291;-77
2023/05/25 01:59:56;;;;;;;3.80;1.57;;;11.00;99.90;;;;;;4939319;29;20208;-76
2023/05/25 02:02:23;;;;;;;3.43;1.63;;;11.00;99.90;;;;;;4939550;29;20248;-76
2023/05/25 02:04:52;;;;;;;5.70;1.73;;;11.00;99.90;;;;;;4939317;29;20660;-77
2023/05/25 02:07:21;;;;;;;4.70;1.80;;;11.00;99.90;;;;;;4939658;29;20219;-76
2023/05/25 02:09:48;;;;;;;3.47;1.63;;;10.90;99.90;;;;;;4939483;29;20215;-77
2023/05/25 02:12:15;;;;;;;5.97;1.90;;;10.80;99.90;;;;;;4939130;29;20236;-77
2023/05/25 02:14:41;;;;;;;5.80;2.20;;;10.80;99.90;;;;;;4939303;29;20307;-77
2023/05/25 02:17:11;;;;;;;5.27;1.77;;;10.70;99.90;;;;;;4939561;29;20215;-77
2023/05/25 02:19:38;;;;;;;9.53;1.80;;;10.70;99.90;;;;;;4939167;29;20208;-77
2023/05/25 02:22:05;;;;;;;7.20;1.80;;;10.60;99.90;;;;;;4938982;29;20232;-76
2023/05/25 02:24:33;;;;;;;2.60;1.60;;;10.70;99.90;;;;;;4939507;29;20312;-77
2023/05/25 02:27:02;;;;;;;6.73;1.73;;;10.70;99.90;;;;;;4939039;29;20331;-77
2023/05/25 02:29:29;;;;;;;5.47;2.10;;;10.60;99.90;;;;;;4939211;29;20268;-77
2023/05/25 02:31:55;;;;;;;4.00;1.97;;;10.50;99.90;;;;;;4938953;29;20235;-76
2023/05/25 02:34:23;;;;;;;4.23;1.80;;;10.50;99.90;;;;;;4939141;29;20212;-76
2023/05/25 02:36:50;;;;;;;6.83;1.90;;;10.50;99.90;;;;;;4939350;29;20271;-77
2023/05/25 02:39:17;;;;;;;7.17;2.10;;;10.40;99.90;;;;;;4938825;29;20706;-77
2023/05/25 02:41:45;;;;;;;4.40;1.53;;;10.40;99.90;;;;;;4938904;29;20239;-77
2023/05/25 02:44:12;;;;;;;6.20;2.50;;;10.30;99.90;;;;;;4939192;29;20511;-75
2023/05/25 02:46:38;;;;;;;5.27;1.90;;;10.30;99.90;;;;;;4938959;29;20247;-76
2023/05/25 02:49:05;;;;;;;6.93;1.90;;;10.30;99.90;;;;;;4938969;29;20213;-77
2023/05/25 02:51:32;;;;;;;7.77;2.50;;;10.20;99.90;;;;;;4938772;29;20240;-76
2023/05/25 02:54:00;;;;;;;5.20;2.10;;;10.20;99.90;;;;;;4938704;29;20205;-76
2023/05/25 02:56:27;;;;;;;5.40;2.27;;;10.10;99.90;;;;;;4938234;29;20224;-76
2023/05/25 02:58:55;;;;;;;10.00;2.00;;;10.00;99.90;;;;;;4938426;29;20213;-77
2023/05/25 03:01:24;;;;;;;5.70;2.10;;;10.00;99.90;;;;;;4938492;29;20703;-77
2023/05/25 03:03:51;;;;;;;6.67;1.50;;;9.90;99.90;;;;;;4938495;29;20264;-76
2023/05/25 03:06:20;;;;;;;5.40;2.13;;;9.90;99.90;;;;;;4938235;29;20268;-76
2023/05/25 03:08:47;;;;;;;5.00;2.00;;;9.80;99.90;;;;;;4938200;29;20267;-77
2023/05/25 03:11:13;;;;;;;5.00;2.00;;;9.70;99.90;;;;;;4937267;29;20213;-77
2023/05/25 03:13:41;;;;;;;6.10;2.30;;;9.60;99.90;;;;;;4938414;29;20211;-77
2023/05/25 03:16:09;;;;;;;6.37;1.93;;;9.60;99.90;;;;;;4938340;29;20204;-76
2023/05/25 03:18:36;;;;;;;6.33;2.00;;;9.60;99.90;;;;;;4938233;29;20213;-77
2023/05/25 03:21:03;;;;;;;5.67;2.37;;;9.60;99.90;;;;;;4938073;29;20664;-76
2023/05/25 03:23:30;;;;;;;5.23;2.47;;;9.60;99.90;;;;;;4938147;29;20209;-76
2023/05/25 03:25:57;;;;;;;6.70;2.13;;;9.60;99.90;;;;;;4938320;29;20244;-77
2023/05/25 03:28:23;;;;;;;4.10;2.33;;;9.60;99.90;;;;;;4938007;29;20660;-77
2023/05/25 03:30:50;;;;;;;7.63;1.93;;;9.60;99.90;;;;;;4937933;29;20747;-76
2023/05/25 03:33:19;;;;;;;4.53;2.30;;;9.60;99.90;;;;;;4938309;29;20591;-77
2023/05/25 03:35:45;;;;;;;10.00;2.30;;;9.60;99.90;;;;;;4938146;29;20606;-77
2023/05/25 03:38:12;;;;;;;8.07;2.43;;;9.50;99.90;;;;;;4937945;29;20205;-76
2023/05/25 03:40:39;;;;;;;4.60;1.60;;;9.50;99.90;;;;;;4937774;29;20212;-77
2023/05/25 03:43:06;;;;;;;5.63;2.10;;;9.50;99.90;;;;;;4938168;29;20236;-77
2023/05/25 03:45:33;;;;;;;4.23;2.00;;;9.40;99.90;;;;;;4937881;29;20262;-77
2023/05/25 03:48:00;;;;;;;4.47;1.97;;;9.40;99.90;;;;;;4937944;29;20205;-77
2023/05/25 03:50:28;;;;;;;6.00;1.90;;;9.40;99.90;;;;;;4937862;29;20280;-77
2023/05/25 03:52:54;;;;;;;3.00;1.77;;;9.50;99.90;;;;;;4937503;29;21080;-77
2023/05/25 03:55:21;;;;;;;7.30;1.80;;;9.50;99.90;;;;;;4937573;29;20311;-76
2023/05/25 03:57:48;;;;;;;4.27;2.50;;;9.50;99.90;;;;;;4937567;29;20296;-77
2023/05/25 04:00:16;;;;;;;6.43;2.07;;;9.50;99.90;;;;;;4937453;29;20205;-77
2023/05/25 04:02:42;;;;;;;7.07;2.30;;;9.50;99.90;;;;;;4937506;29;20229;-76
2023/05/25 04:05:10;;;;;;;3.73;2.10;;;9.60;99.90;;;;;;4937164;29;20219;-77
2023/05/25 04:07:39;;;;;;;4.00;2.03;;;9.60;99.90;;;;;;4937375;29;20244;-77
2023/05/25 04:10:07;;;;;;;4.87;2.53;;;9.60;99.90;;;;;;4937565;29;20208;-76
2023/05/25 04:12:35;;;;;;;3.97;1.73;;;9.60;99.90;;;;;;4937406;29;20276;-77
2023/05/25 04:15:04;;;;;;;7.70;2.10;;;9.70;99.90;;;;;;4937166;29;20268;-77
2023/05/25 04:17:31;;;;;;;3.87;2.17;;;9.80;99.90;;;;;;4936978;29;20208;-77
2023/05/25 04:19:58;;;;;;;4.47;1.90;;;9.80;99.90;;;;;;4937691;29;20229;-77
2023/05/25 04:22:24;;;;;;;4.63;2.00;;;9.80;99.90;;;;;;4936930;29;20228;-77
2023/05/25 04:24:53;;;;;;;6.80;2.23;;;9.80;99.90;;;;;;4937201;29;20205;-77
2023/05/25 04:27:21;;;;;;;6.23;1.90;;;9.90;99.90;;;;;;4936953;29;20569;-76
2023/05/25 04:29:49;;;;;;;6.13;2.33;;;10.00;99.90;;;;;;4936932;29;20213;-77
2023/05/25 04:32:16;;;;;;;3.97;1.93;;;10.10;99.90;;;;;;4937071;29;20260;-77
2023/05/25 04:34:45;;;;;;;4.07;1.97;;;10.20;99.90;;;;;;4939756;29;20220;-76
2023/05/25 04:37:12;;;;;;;6.27;2.27;;;10.20;99.90;;;;;;4942750;29;20220;-76
2023/05/25 04:39:39;;;;;;;3.20;1.90;;;10.30;99.90;;;;;;4942953;29;20209;-76
2023/05/25 04:42:07;;;;;;;4.10;2.33;;;10.40;99.90;;;;;;4942216;29;20235;-75
2023/05/25 04:44:34;;;;;;;5.53;2.07;;;10.60;99.90;;;;;;4942486;29;20204;-77
2023/05/25 04:47:01;;;;;;;6.40;2.07;;;10.80;99.90;;;;;;4943078;29;20595;-77
2023/05/25 04:49:28;;;;;;;5.77;2.23;;;10.90;99.90;;;;;;4942842;29;20271;-76
2023/05/25 04:51:55;;;;;;;4.40;2.10;;;11.30;99.90;;;;;;4943298;29;20229;-77
2023/05/25 04:54:22;;;;;;;3.90;2.10;;;11.90;99.90;;;;;;4939029;29;20281;-76
2023/05/25 04:56:49;;;;;;;6.93;2.20;;;12.80;99.90;;;;;;4937094;29;20212;-77
2023/05/25 04:59:17;;;;;;;7.50;2.03;;;13.90;99.90;;;;;;4936803;29;20211;-77
2023/05/25 05:01:44;;;;;;;7.60;2.20;;;14.50;99.90;;;;;;4937413;29;20228;-76
2023/05/25 05:04:11;;;;;;;5.93;1.87;;;15.40;99.90;;;;;;4937765;29;20208;-77
2023/05/25 05:06:38;;;;;;;5.00;1.80;;;16.00;99.90;;;;;;4937113;29;20264;-76
2023/05/25 05:09:05;;;;;;;6.07;1.70;;;16.40;99.90;;;;;;4936679;29;20204;-77
2023/05/25 05:11:32;;;;;;;3.53;1.60;;;16.70;99.90;;;;;;4936779;29;20229;-77
2023/05/25 05:13:59;;;;;;;4.67;2.00;;;17.10;99.90;;;;;;4936420;29;20295;-77
2023/05/25 05:16:32;;;;;;;5.78;1.90;;;17.60;99.90;;;;;;4936551;29;20664;-78
2023/05/25 05:18:59;;;;;;;5.57;1.58;;;18.00;99.90;;;;;;4936297;29;20205;-78
2023/05/25 05:21:25;;;;;;;5.93;2.17;;;18.10;99.90;;;;;;4936388;29;20339;-77
2023/05/25 05:23:52;;;;;;;4.60;1.80;;;17.90;99.90;;;;;;4936063;29;20205;-76
2023/05/25 05:26:20;;;;;;;7.60;2.22;;;18.60;99.90;;;;;;4935949;29;20263;-78
2023/05/25 05:28:46;;;;;;;5.47;1.60;;;18.90;99.90;;;;;;4936116;29;20308;-77
2023/05/25 05:31:16;;;;;;;5.10;1.80;;;18.50;99.90;;;;;;4936373;29;20215;-76
2023/05/25 05:33:44;;;;;;;8.75;2.15;;;18.70;99.90;;;;;;4935588;29;20205;-77
2023/05/25 05:36:11;;;;;;;5.50;2.03;;;19.40;99.90;;;;;;4936386;29;20223;-77
2023/05/25 05:38:39;;;;;;;3.40;1.73;;;20.20;99.90;;;;;;4936036;29;20235;-77
2023/05/25 05:41:12;;;;;;;6.07;1.98;;;20.50;99.90;;;;;;4935595;29;20220;-78
2023/05/25 05:43:40;;;;;;;4.47;2.10;;;19.60;99.90;;;;;;4936560;29;20213;-76
2023/05/25 05:46:08;;;;;;;5.18;2.15;;;19.90;99.90;;;;;;4935947;29;20233;-77
2023/05/25 05:48:35;;;;;;;5.53;1.90;;;20.10;99.90;;;;;;4935962;29;20208;-77
2023/05/25 05:51:03;;;;;;;6.28;1.80;;;20.00;99.90;;;;;;4936032;29;20212;-74
2023/05/25 05:53:31;;;;;;;4.03;1.80;;;20.10;99.90;;;;;;4935408;29;20209;-73
2023/05/25 05:55:58;;;;;;;4.05;1.67;;;20.30;99.90;;;;;;4935279;29;20702;-73
2023/05/25 05:58:26;;;;;;;3.50;1.80;;;20.10;99.90;;;;;;4935640;29;20673;-74
2023/05/25 06:00:53;;;;;;;5.00;2.65;;;20.80;99.90;;;;;;4935531;29;20220;-73
2023/05/25 06:03:20;;;;;;;4.20;2.03;;;21.50;99.90;;;;;;4935607;29;20577;-76
2023/05/25 06:05:47;;;;;;;8.02;2.05;;;21.80;99.80;;;;;;4935554;29;20219;-76
2023/05/25 06:08:15;;;;;;;4.13;1.85;;;22.00;99.90;;;;;;4935504;29;20734;-73
2023/05/25 06:10:42;;;;;;;3.30;1.70;;;22.10;99.40;;;;;;4935592;29;20209;-73
2023/05/25 06:13:09;;;;;;;4.38;1.98;;;22.60;98.90;;;;;;4935472;29;20643;-73
2023/05/25 06:15:36;;;;;;;4.43;2.15;;;22.60;98.80;;;;;;4935534;29;20212;-74
2023/05/25 06:18:02;;;;;;;4.45;2.20;;;23.20;97.60;;;;;;4935128;29;20548;-75
2023/05/25 06:20:29;;;;;;;9.43;2.80;;;22.80;98.10;;;;;;4954253;28;20215;-75
2023/05/25 06:22:56;;;;;;;3.35;1.58;;;22.80;98.20;;;;;;4954029;28;20314;-76
2023/05/25 06:25:24;;;;;;;2.97;1.63;;;22.90;98.10;;;;;;4954350;29;20578;-77
2023/05/25 06:27:51;;;;;;;5.50;2.35;;;22.70;97.60;;;;;;4943302;29;20232;-72
2023/05/25 06:30:18;;;;;;;2.80;1.80;;;22.70;98.00;;;;;;4935091;29;20216;-79
2023/05/25 06:32:45;;;;;;;6.00;1.95;;;21.90;98.90;;;;;;4935906;29;20243;-81
2023/05/25 06:35:18;;;;;;;6.18;2.03;;;21.50;99.30;;;;;;4935463;29;20204;-81
2023/05/25 06:37:45;;;;;;;5.07;2.00;;;22.30;98.50;;;;;;4935434;29;20228;-81
2023/05/25 06:40:13;;;;;;;5.28;2.08;;;22.40;98.60;;;;;;4935178;29;20216;-80
2023/05/25 06:42:41;;;;;;;7.93;1.98;;;22.30;98.60;;;;;;4935445;29;20232;-81
2023/05/25 06:45:09;;;;;;;4.18;1.77;;;22.00;98.40;;;;;;4938027;29;20656;-78
2023/05/25 06:47:36;;;;;;;5.63;1.52;;;21.80;98.10;;;;;;4938520;29;20240;-81
2023/05/25 06:50:03;;;;;;;3.67;1.95;;;21.40;98.70;;;;;;4938959;29;20204;-80
2023/05/25 06:52:30;;;;;;;3.97;1.90;;;20.90;99.40;;;;;;4938638;29;20611;-81
2023/05/25 06:54:57;;;;;;;5.07;2.00;;;21.20;99.30;;;;;;4939426;29;20279;-81
2023/05/25 06:57:24;;;;;;;7.15;2.00;;;21.20;99.30;;;;;;4938436;29;20212;-79
2023/05/25 06:59:52;;;;;;;7.95;2.33;;;21.40;99.20;;;;;;4938265;29;20215;-81
2023/05/25 07:02:20;;;;;;;4.82;1.70;;;21.60;99.20;;;;;;4938371;29;20228;-81
2023/05/25 07:04:47;;;;;;;3.53;2.05;;;22.10;99.10;;;;;;4935778;29;20209;-79
2023/05/25 07:07:13;;;;;;;5.00;2.25;;;22.50;98.40;;;;;;4957431;28;20677;-81
2023/05/25 07:09:40;;;;;;;4.40;2.08;;;22.30;98.00;;;;;;4957495;29;20595;-72
2023/05/25 07:12:09;;;;;;;4.82;2.33;;;22.10;97.90;;;;;;4957267;29;20657;-72
2023/05/25 07:14:36;;;;;;;5.97;2.35;;;22.10;98.10;;;;;;4957219;29;20219;-72
2023/05/25 07:17:05;;;;;;;4.45;1.70;;;22.40;97.80;;;;;;4937663;29;20331;-73
2023/05/25 07:19:32;;;;;;;4.65;1.52;;;22.40;97.60;;;;;;4936984;29;20268;-71
2023/05/25 07:21:59;;;;;;;3.70;1.63;;;22.20;97.80;;;;;;4938557;29;20316;-69
2023/05/25 07:24:26;;;;;;;4.10;1.70;;;22.20;98.00;;;;;;4956243;29;20232;-70
2023/05/25 07:26:53;;;;;;;4.40;2.22;;;22.00;98.20;;;;;;4941812;29;20775;-71
2023/05/25 07:29:20;;;;;;;6.93;2.08;;;21.90;98.40;;;;;;4936750;29;20710;-71
2023/05/25 07:31:47;;;;;;;4.85;2.10;;;22.40;97.80;;;;;;4937123;29;22537;-71
2023/05/25 07:34:15;;;;;;;7.03;2.15;;;23.10;98.00;;;;;;4936544;29;20294;-71
2023/05/25 07:36:42;;;;;;;4.15;2.28;;;23.00;97.40;;;;;;4937406;29;20201;-71
2023/05/25 07:39:10;;;;;;;5.57;2.08;;;22.70;97.40;;;;;;4936988;29;20645;-71
2023/05/25 07:41:37;;;;;;;6.28;1.73;;;23.00;97.50;;;;;;4936870;29;20319;-71
2023/05/25 07:44:04;;;;;;;4.57;1.90;;;23.80;97.10;;;;;;4937355;29;20208;-70
2023/05/25 07:46:30;;;;;;;2.85;1.40;;;23.30;96.30;;;;;;4936676;29;20635;-70
2023/05/25 07:48:58;;;;;;;7.00;1.83;;;22.40;97.60;;;;;;4936578;29;20556;-71
2023/05/25 07:51:29;;;;;;;3.22;1.80;;;22.20;97.40;;;;;;4936691;29;20228;-71
2023/05/25 07:53:57;;;;;;;5.25;1.85;;;22.50;98.10;;;;;;4936838;29;20240;-70
2023/05/25 07:56:24;;;;;;;4.47;1.65;;;23.30;97.50;;;;;;4939949;29;20213;-70
2023/05/25 07:58:50;;;;;;;5.25;1.55;;;23.50;96.80;;;;;;4945537;29;20206;-70
2023/05/25 08:01:17;;;;;;;4.95;1.60;;;23.20;97.20;;;;;;4949277;29;20228;-70
2023/05/25 08:03:44;;;;;;;3.85;1.40;;;23.60;96.90;;;;;;4939534;29;20219;-70
2023/05/25 08:06:11;;;;;;;4.43;1.50;;;23.40;96.70;;;;;;4936465;29;20744;-70
2023/05/25 08:08:40;;;;;;;5.32;2.15;;;22.30;97.80;;;;;;4936586;29;20237;-70
2023/05/25 08:11:08;;;;;;;6.38;1.77;;;21.50;98.60;;;;;;4935718;29;20212;-70
2023/05/25 08:13:35;;;;;;;2.67;1.35;;;22.30;98.60;;;;;;4936144;29;20670;-70
2023/05/25 08:16:02;;;;;;;5.75;2.08;;;23.00;97.70;;;;;;4936224;29;20267;-70
2023/05/25 08:18:30;;;;;;;4.47;1.60;;;23.40;97.20;;;;;;4935580;29;20212;-71
2023/05/25 08:20:57;;;;;;;6.05;1.45;;;24.30;96.60;;;;;;4935788;29;20205;-71
2023/05/25 08:23:24;;;;;;;5.85;2.03;;;23.60;96.70;;;;;;4935821;29;20217;-70
2023/05/25 08:25:52;;;;;;;3.50;1.77;;;24.20;96.00;;;;;;4935190;29;20205;-71
2023/05/25 08:28:20;;;;;;;4.80;1.95;;;24.20;96.10;;;;;;4935342;29;20236;-71
2023/05/25 08:30:46;;;;;;;4.75;1.70;;;24.20;95.90;;;;;;4935851;29;20209;-72
2023/05/25 08:33:13;;;;;;;7.65;1.98;;;23.80;96.20;;;;;;4935359;29;20225;-72
2023/05/25 08:35:41;;;;;;;7.47;2.30;;;23.70;96.10;;;;;;4935606;29;20209;-71
2023/05/25 08:38:08;;;;;;;5.65;1.90;;;23.40;96.70;;;;;;4935211;29;20760;-71
2023/05/25 08:40:36;;;;;;;3.78;1.67;;;24.00;96.50;;;;;;4935113;29;20213;-73
2023/05/25 08:43:05;;;;;;;4.40;1.58;;;25.20;96.00;;;;;;4953685;29;20611;-71
2023/05/25 08:45:32;;;;;;;6.63;1.90;;;24.60;95.30;;;;;;4954576;29;20212;-75
2023/05/25 08:47:59;;;;;;;4.55;2.30;;;24.50;95.90;;;;;;4935886;29;20243;-72
2023/05/25 08:50:27;;;;;;;7.38;2.03;;;22.80;96.40;;;;;;4935082;29;20307;-72
2023/05/25 08:52:56;;;;;;;6.88;2.20;;;21.30;98.70;;;;;;4935188;29;20260;-73
2023/05/25 08:55:30;;;;;;;6.25;2.13;;;21.60;98.20;;;;;;4939572;29;20731;-72
2023/05/25 08:58:02;;;;;;;5.75;2.00;;;22.00;98.20;;;;;;4935039;29;20204;-72
2023/05/25 09:00:34;;;;;;;5.05;1.75;;;23.20;97.80;;;;;;4950432;29;20218;-73
2023/05/25 09:03:09;;;;;;;5.30;2.15;;;23.50;96.70;;;;;;4942131;29;20595;-73
2023/05/25 09:05:36;;;;;;;6.35;1.95;;;24.30;96.30;;;;;;4950718;29;20211;-74
2023/05/25 09:08:06;;;;;;;4.57;2.10;;;24.00;95.70;;;;;;4934640;29;20232;-73
2023/05/25 09:10:34;;;;;;;4.63;1.80;;;23.10;96.40;;;;;;4934349;29;20215;-76
2023/05/25 09:13:02;;;;;;;5.80;1.90;;;22.40;96.80;;;;;;4953402;29;20319;-78
2023/05/25 09:15:31;;;;;;;5.60;2.10;;;22.40;97.00;;;;;;4954480;29;20208;-76
2023/05/25 09:17:57;;;;;;;3.70;1.75;;;22.20;97.20;;;;;;4935943;29;20678;-76
2023/05/25 09:20:30;;;;;;;4.45;1.90;;;22.20;97.40;;;;;;4934110;29;20568;-77
2023/05/25 09:22:57;;;;;;;5.05;1.92;;;22.10;98.00;;;;;;4934847;29;20229;-75
2023/05/25 09:25:27;;;;;;;3.22;1.77;;;21.80;97.30;;;;;;4934681;29;20209;-78
2023/05/25 09:27:55;;;;;;;3.05;1.42;;;21.50;97.50;;;;;;4935143;29;20240;-74
2023/05/25 09:30:22;;;;;;;3.20;1.48;;;21.20;98.50;;;;;;4935257;29;20280;-75
2023/05/25 09:32:50;;;;;;;3.47;1.50;;;22.20;97.60;;;;;;4934876;29;20648;-75
2023/05/25 09:35:17;;;;;;;4.80;1.80;;;22.90;96.90;;;;;;4935574;29;20209;-75
2023/05/25 09:37:46;;;;;;;3.13;1.88;;;22.90;96.40;;;;;;4934855;29;20216;-74
2023/05/25 09:40:14;;;;;;;6.22;1.48;;;21.60;96.80;;;;;;4934348;29;20675;-75
2023/05/25 09:42:42;;;;;;;4.63;1.48;;;20.70;97.80;;;;;;4934568;29;20264;-74
2023/05/25 09:45:09;;;;;;;5.70;1.65;;;20.20;97.90;;;;;;4935424;29;20242;-73
2023/05/25 09:47:37;;;;;;;3.65;1.40;;;19.80;98.40;;;;;;4940245;29;20746;-79
2023/05/25 09:50:06;;;;;;;4.88;1.77;;;19.70;98.50;;;;;;4952756;28;20211;-75
2023/05/25 09:52:33;;;;;;;5.30;1.70;;;19.60;98.70;;;;;;4954993;29;20291;-76
2023/05/25 09:55:02;;;;;;;4.25;1.60;;;19.30;98.60;;;;;;4954432;29;20212;-78
2023/05/25 09:57:29;;;;;;;3.08;1.55;;;19.80;99.20;;;;;;4948590;29;20205;-74
2023/05/25 09:59:56;;;;;;;4.50;1.83;;;20.30;99.00;;;;;;4935710;29;20209;-77
2023/05/25 10:02:23;;;;;;;4.38;1.83;;;20.50;98.40;;;;;;4935783;29;20287;-77
2023/05/25 10:04:50;;;;;;;5.97;1.55;;;20.00;98.00;;;;;;4935218;29;20577;-76
2023/05/25 10:07:19;;;;;;;2.50;1.40;;;19.50;98.50;;;;;;4948545;29;20299;-77
2023/05/25 10:09:46;;;;;;;5.77;2.13;;;19.20;99.30;;;;;;4935366;29;20228;-77
2023/05/25 10:12:17;;;;;;;2.10;1.37;;;19.30;99.40;;;;;;4934930;29;20233;-76
2023/05/25 10:14:45;;;;;;;3.43;1.50;;;19.40;99.30;;;;;;4935420;29;20290;-76
2023/05/25 10:17:17;;;;;;;5.75;1.70;;;19.50;99.40;;;;;;4935037;29;20201;-76
2023/05/25 10:19:53;;;;;;;2.40;1.40;;;19.40;99.50;;;;;;4937364;29;20215;-74
2023/05/25 10:22:27;;;;;;;7.28;1.55;;;19.50;99.50;;;;;;4939183;29;20243;-76
2023/05/25 10:24:56;;;;;;;4.03;1.50;;;19.50;99.40;;;;;;4939024;29;20255;-74
2023/05/25 10:27:27;;;;;;;5.65;1.50;;;19.60;99.50;;;;;;4939007;29;20209;-74
2023/05/25 10:29:56;;;;;;;2.05;1.30;;;19.30;99.20;;;;;;4939073;29;20687;-74
2023/05/25 10:32:24;;;;;;;4.70;1.42;;;19.30;99.80;;;;;;4939045;29;20239;-75
2023/05/25 10:34:52;;;;;;;4.13;1.50;;;19.40;99.40;;;;;;4938670;29;20212;-76
2023/05/25 10:37:20;;;;;;;2.83;1.52;;;19.60;99.00;;;;;;4938848;29;20232;-75
2023/05/25 10:39:48;;;;;;;3.85;1.30;;;19.70;99.40;;;;;;4939017;29;20219;-75
2023/05/25 10:42:18;;;;;;;2.90;1.30;;;19.90;99.50;;;;;;4944198;29;20220;-74
2023/05/25 10:44:45;;;;;;;3.63;1.60;;;19.50;99.10;;;;;;4953232;29;20209;-75
2023/05/25 10:47:12;;;;;;;3.80;1.40;;;19.30;99.30;;;;;;4938423;29;20208;-76
2023/05/25 10:49:52;;;;;;;2.73;1.37;;;18.80;99.60;;;;;;4938958;29;20246;-74
2023/05/25 10:52:21;;;;;;;3.43;1.73;;;19.00;99.90;;;;;;4938836;29;20288;-75
2023/05/25 10:54:48;;;;;;;4.15;1.52;;;18.90;99.80;;;;;;4938506;29;20221;-76
2023/05/25 10:57:19;;;;;;;5.33;1.73;;;18.80;99.90;;;;;;4938021;29;20564;-74
2023/05/25 10:59:50;;;;;;;3.20;1.60;;;18.60;99.90;;;;;;4938280;29;20209;-76
2023/05/25 11:02:18;;;;;;;6.40;1.50;;;18.50;99.90;;;;;;4938192;29;20827;-75
2023/05/25 11:04:47;;;;;;;2.90;1.60;;;18.70;99.90;;;;;;4938509;29;20264;-76
2023/05/25 11:07:15;;;;;;;4.03;1.40;;;18.60;99.90;;;;;;4938177;29;20208;-76
2023/05/25 11:09:55;;;;;;;3.33;1.40;;;18.70;99.90;;;;;;4938178;29;20604;-76
2023/05/25 11:12:22;;;;;;;2.87;1.10;;;18.60;99.90;;;;;;4937878;29;20224;-76
2023/05/25 11:15:17;;;;;;;3.27;1.27;;;18.70;99.80;;;;;;4938295;29;20215;-76
2023/05/25 11:17:46;;;;;;;2.10;1.07;;;19.00;99.90;;;;;;4938193;29;20205;-76
2023/05/25 11:20:23;;;;;;;2.78;1.38;;;19.40;99.90;;;;;;4938327;29;20209;-75
2023/05/25 11:22:51;;;;;;;3.03;1.10;;;19.50;99.80;;;;;;4938043;29;20700;-76
2023/05/25 11:25:39;;;;;;;3.42;1.10;;;19.90;99.60;;;;;;4938103;29;20209;-75
2023/05/25 11:28:09;;;;;;;3.17;1.60;;;19.90;99.40;;;;;;4937693;29;20587;-73
2023/05/25 11:30:38;;;;;;;3.35;1.30;;;19.50;99.40;;;;;;4936938;29;20220;-74
2023/05/25 11:33:07;;;;;;;1.40;0.90;;;19.70;99.90;;;;;;4934599;29;20531;-74
2023/05/25 11:35:36;;;;;;;2.55;1.30;;;20.00;99.80;;;;;;4935752;29;20240;-79
2023/05/25 11:38:06;;;;;;;2.63;1.35;;;20.10;98.60;;;;;;4936612;29;20267;-77
2023/05/25 11:40:33;;;;;;;3.00;1.50;;;19.70;99.40;;;;;;4935579;29;20212;-77
2023/05/25 11:43:02;;;;;;;2.67;1.25;;;19.70;99.10;;;;;;4946430;29;20228;-74
2023/05/25 11:45:30;;;;;;;1.98;1.27;;;19.50;99.50;;;;;;4936306;29;20727;-76
2023/05/25 11:47:58;;;;;;;2.85;1.63;;;19.40;99.90;;;;;;4935735;29;20763;-77
2023/05/25 11:50:25;;;;;;;2.83;1.45;;;19.80;99.90;;;;;;4936226;29;20213;-73
2023/05/25 11:52:52;;;;;;;5.18;1.73;;;20.00;99.60;;;;;;4936264;29;20236;-73
2023/05/25 11:55:20;;;;;;;4.82;1.73;;;19.60;99.50;;;;;;4935851;29;20309;-73
2023/05/25 11:57:47;;;;;;;3.45;2.33;;;19.30;99.90;;;;;;4936043;29;20264;-74
2023/05/25 12:00:26;;;;;;;5.00;1.55;;;19.50;99.90;;;;;;4935843;29;20620;-73
2023/05/25 12:02:53;;;;;;;2.03;1.42;;;19.90;99.90;;;;;;4935338;29;20730;-75
2023/05/25 12:05:20;;;;;;;3.92;1.80;;;20.00;99.40;;;;;;4936549;29;20303;-72
2023/05/25 12:07:47;;;;;;;1.90;1.23;;;19.80;99.90;;;;;;4935305;29;20208;-73
2023/05/25 12:10:15;;;;;;;4.65;1.65;;;19.70;99.90;;;;;;4935201;29;20593;-73
2023/05/25 12:12:42;;;;;;;2.35;1.48;;;19.70;99.90;;;;;;4935356;29;20235;-72
2023/05/25 12:15:11;;;;;;;3.88;1.52;;;19.70;99.90;;;;;;4935095;29;20243;-72
2023/05/25 12:17:41;;;;;;;4.07;1.42;;;19.90;99.90;;;;;;4936447;29;20221;-73
2023/05/25 12:20:10;;;;;;;3.50;1.60;;;20.00;99.90;;;;;;4935653;29;20672;-74
2023/05/25 12:22:38;;;;;;;2.72;1.70;;;19.40;99.90;;;;;;4935479;29;20763;-73
2023/05/25 12:25:09;;;;;;;5.22;1.80;;;19.60;99.90;;;;;;4945210;29;20243;-75
2023/05/25 12:27:36;;;;;;;3.92;1.90;;;19.70;99.90;;;;;;4948354;29;20205;-74
2023/05/25 12:30:04;;;;;;;3.97;1.92;;;19.80;99.90;;;;;;4935236;29;20700;-71
2023/05/25 12:32:31;;;;;;;4.15;1.67;;;19.80;99.80;;;;;;4934338;29;20232;-73
2023/05/25 12:35:04;;;;;;;3.17;1.65;;;19.70;99.90;;;;;;4935376;29;20880;-73
2023/05/25 12:37:31;;;;;;;4.82;2.10;;;19.70;99.90;;;;;;4934977;29;20313;-72
2023/05/25 12:39:58;;;;;;;3.53;1.75;;;19.80;99.90;;;;;;4935718;29;20775;-72
2023/05/25 12:42:26;;;;;;;2.85;1.80;;;19.90;99.90;;;;;;4942845;29;20224;-73
2023/05/25 12:44:57;;;;;;;2.90;1.48;;;19.60;99.90;;;;;;4955419;29;20232;-75
2023/05/25 12:47:27;;;;;;;3.58;1.83;;;19.20;99.90;;;;;;4949545;29;20686;-71
2023/05/25 12:50:10;;;;;;;2.60;1.38;;;19.20;99.90;;;;;;4936257;29;20232;-72
2023/05/25 12:52:40;;;;;;;3.15;1.30;;;19.70;99.90;;;;;;4935941;29;20306;-72